Time;durP1;ratioP1;P1;durP2;ratioP2;P2;SDS_P1;SDS_P2;PMS_P1;PMS_P2;Temp;Humidity;BMP_temperature;BMP_pressure;BME280_temperature;BME280_humidity;BME280_pressure;Samples;Min_cycle;Max_cycle;Signal;HPM_P1;HPM_P2
2021/12/03 00:00:25;;;;;;;;;30.75;28.50;;;;;;;;5040263;28;45382;-69
2021/12/03 00:02:51;;;;;;;;;27.50;26.00;;;;;;;;5038962;28;45467;-69
2021/12/03 00:05:16;;;;;;;;;34.00;27.25;;;;;;;;5045672;28;45403;-70
2021/12/03 00:07:42;;;;;;;;;33.75;25.75;;;;;;;;5039358;28;45499;-70
2021/12/03 00:10:08;;;;;;;;;36.50;31.00;;;;;;;;5045869;28;45640;-69
2021/12/03 00:12:34;;;;;;;;;28.00;25.25;;;;;;;;5038914;28;46394;-69
2021/12/03 00:14:59;;;;;;;;;30.50;28.00;;;;;;;;5045795;28;45403;-69
2021/12/03 00:17:24;;;;;;;;;27.50;27.25;;;;;;;;5041527;28;45312;-69
2021/12/03 00:19:49;;;;;;;;;32.00;25.75;;;;;;;;5046128;28;45176;-69
2021/12/03 00:22:15;;;;;;;;;37.25;27.00;;;;;;;;5038685;28;47111;-69
2021/12/03 00:24:40;;;;;;;;;28.25;25.00;;;;;;;;5038585;28;45412;-69
2021/12/03 00:27:06;;;;;;;;;36.75;35.75;;;;;;;;5042598;28;45371;-69
2021/12/03 00:29:31;;;;;;;;;30.00;28.25;;;;;;;;5039160;28;45677;-69
2021/12/03 00:31:57;;;;;;;;;27.75;26.00;;;;;;;;5043414;28;45563;-69
2021/12/03 00:34:22;;;;;;;;;30.75;27.50;;;;;;;;5043875;28;45382;-69
2021/12/03 00:36:47;;;;;;;;;32.75;30.50;;;;;;;;5051691;28;45257;-69
2021/12/03 00:39:13;;;;;;;;;35.00;21.50;;;;;;;;5032257;28;45548;-69
2021/12/03 00:41:45;;;;;;;;;37.25;27.00;;;;;;;;5044111;28;45413;-69
2021/12/03 00:44:11;;;;;;;;;30.75;28.75;;;;;;;;5034514;28;45256;-69
2021/12/03 00:46:36;;;;;;;;;33.25;27.25;;;;;;;;5044353;28;45231;-69
2021/12/03 00:49:01;;;;;;;;;26.75;26.00;;;;;;;;5031107;28;45208;-69
2021/12/03 00:51:26;;;;;;;;;40.25;33.00;;;;;;;;5036642;28;46323;-69
2021/12/03 00:53:52;;;;;;;;;28.00;26.25;;;;;;;;5036937;28;45382;-69
2021/12/03 00:56:18;;;;;;;;;29.25;26.25;;;;;;;;5045333;28;45288;-69
2021/12/03 00:58:44;;;;;;;;;26.25;25.00;;;;;;;;5035367;28;45876;-69
2021/12/03 01:01:09;;;;;;;;;34.25;31.75;;;;;;;;5045065;28;45424;-69
2021/12/03 01:03:36;;;;;;;;;35.50;30.75;;;;;;;;5036992;28;45311;-70
2021/12/03 01:06:01;;;;;;;;;27.25;24.00;;;;;;;;5039301;28;45542;-69
2021/12/03 01:08:27;;;;;;;;;33.50;31.00;;;;;;;;5038444;28;45428;-69
2021/12/03 01:10:52;;;;;;;;;31.00;26.75;;;;;;;;5033541;28;45283;-70
2021/12/03 01:13:17;;;;;;;;;31.75;27.25;;;;;;;;5034591;28;45369;-69
2021/12/03 01:15:43;;;;;;;;;33.25;27.50;;;;;;;;5044996;28;45441;-69
2021/12/03 01:18:09;;;;;;;;;19.75;14.75;;;;;;;;5041061;28;45469;-69
2021/12/03 01:20:34;;;;;;;;;30.50;28.00;;;;;;;;5044679;28;45331;-69
2021/12/03 01:23:01;;;;;;;;;33.75;23.25;;;;;;;;5038286;28;45281;-69
2021/12/03 01:25:26;;;;;;;;;37.50;29.75;;;;;;;;5040263;28;45597;-70
2021/12/03 01:27:53;;;;;;;;;27.75;22.25;;;;;;;;5039677;28;45532;-69
2021/12/03 01:30:20;;;;;;;;;29.00;26.50;;;;;;;;5041633;28;46617;-69
2021/12/03 01:32:46;;;;;;;;;27.25;23.00;;;;;;;;5038822;28;45444;-69
2021/12/03 01:35:14;;;;;;;;;24.00;21.25;;;;;;;;5042781;28;45294;-69
2021/12/03 01:37:39;;;;;;;;;27.25;24.75;;;;;;;;5042097;28;45425;-69
2021/12/03 01:40:06;;;;;;;;;33.50;29.00;;;;;;;;5043121;28;45696;-69
2021/12/03 01:42:31;;;;;;;;;28.75;20.75;;;;;;;;5037684;28;45325;-69
2021/12/03 01:44:57;;;;;;;;;35.00;28.50;;;;;;;;5035559;28;45491;-69
2021/12/03 01:47:22;;;;;;;;;34.75;28.75;;;;;;;;5042585;28;45535;-69
2021/12/03 01:49:47;;;;;;;;;29.75;26.25;;;;;;;;5036642;28;46314;-69
2021/12/03 01:52:12;;;;;;;;;36.75;29.25;;;;;;;;5042139;28;45817;-69
2021/12/03 01:54:37;;;;;;;;;32.25;27.00;;;;;;;;5037205;28;45349;-70
2021/12/03 01:57:03;;;;;;;;;25.50;23.75;;;;;;;;5043047;28;46709;-67
2021/12/03 01:59:28;;;;;;;;;28.75;26.25;;;;;;;;5029510;28;45380;-68
2021/12/03 02:01:53;;;;;;;;;32.75;32.00;;;;;;;;5038794;28;45365;-68
2021/12/03 02:04:19;;;;;;;;;28.00;27.00;;;;;;;;5039537;28;45456;-68
2021/12/03 02:06:44;;;;;;;;;27.75;26.50;;;;;;;;5042758;28;45436;-68
2021/12/03 02:09:09;;;;;;;;;29.25;24.25;;;;;;;;5038990;28;45420;-68
2021/12/03 02:11:35;;;;;;;;;30.50;27.00;;;;;;;;5043333;28;45412;-68
2021/12/03 02:14:00;;;;;;;;;29.50;28.75;;;;;;;;5037918;28;45509;-68
2021/12/03 02:16:26;;;;;;;;;33.75;27.50;;;;;;;;5044226;28;45477;-69
2021/12/03 02:18:51;;;;;;;;;24.75;17.25;;;;;;;;5038216;28;48050;-68
2021/12/03 02:21:17;;;;;;;;;27.75;23.50;;;;;;;;5043982;28;45234;-68
2021/12/03 02:23:42;;;;;;;;;34.75;30.00;;;;;;;;5036854;28;45338;-69
2021/12/03 02:26:08;;;;;;;;;30.50;27.75;;;;;;;;5040980;28;45476;-69
2021/12/03 02:28:35;;;;;;;;;29.25;23.50;;;;;;;;5038829;28;47807;-69
2021/12/03 02:31:00;;;;;;;;;34.25;27.50;;;;;;;;5039525;28;45441;-69
2021/12/03 02:33:26;;;;;;;;;31.25;28.00;;;;;;;;5040001;28;45303;-69
2021/12/03 02:35:52;;;;;;;;;24.50;20.50;;;;;;;;5042703;28;45249;-69
2021/12/03 02:38:18;;;;;;;;;30.00;26.25;;;;;;;;5040980;28;46360;-69
2021/12/03 02:40:44;;;;;;;;;35.50;28.50;;;;;;;;5043104;28;45330;-69
2021/12/03 02:43:09;;;;;;;;;30.50;26.75;;;;;;;;5036467;28;45453;-69
2021/12/03 02:45:35;;;;;;;;;35.50;26.75;;;;;;;;5041189;28;45481;-69
2021/12/03 02:48:01;;;;;;;;;24.75;23.00;;;;;;;;5032348;28;47120;-69
2021/12/03 02:50:27;;;;;;;;;25.00;22.75;;;;;;;;5040597;28;45355;-70
2021/12/03 02:52:53;;;;;;;;;25.00;24.00;;;;;;;;5035749;28;45486;-70
2021/12/03 02:55:18;;;;;;;;;24.75;22.50;;;;;;;;5040735;28;45692;-69
2021/12/03 02:57:43;;;;;;;;;29.75;25.25;;;;;;;;5036649;28;45338;-69
2021/12/03 03:00:10;;;;;;;;;27.50;21.25;;;;;;;;5042475;28;45321;-69
2021/12/03 03:02:35;;;;;;;;;30.00;25.75;;;;;;;;5039679;28;45374;-70
2021/12/03 03:05:01;;;;;;;;;21.00;18.67;;;;;;;;5039035;28;45505;-70
2021/12/03 03:07:26;;;;;;;;;24.75;21.50;;;;;;;;5037839;28;45439;-71
2021/12/03 03:09:51;;;;;;;;;26.00;21.75;;;;;;;;5041594;28;45358;-70
2021/12/03 03:12:16;;;;;;;;;11.33;11.33;;;;;;;;5039405;28;45368;-69
2021/12/03 03:14:47;;;;;;;;;14.33;12.33;;;;;;;;5039625;28;45461;-69
2021/12/03 03:17:13;;;;;;;;;14.00;12.33;;;;;;;;5039671;28;46323;-69
2021/12/03 03:19:38;;;;;;;;;25.00;16.00;;;;;;;;5042682;28;45360;-69
2021/12/03 03:22:03;;;;;;;;;19.33;16.00;;;;;;;;5040921;28;45259;-70
2021/12/03 03:24:29;;;;;;;;;11.33;10.33;;;;;;;;5035694;28;45370;-69
2021/12/03 03:26:54;;;;;;;;;11.33;11.33;;;;;;;;5039541;28;48234;-69
2021/12/03 03:29:19;;;;;;;;;13.00;13.00;;;;;;;;5037879;28;45361;-70
2021/12/03 03:31:46;;;;;;;;;17.67;13.33;;;;;;;;5035277;28;45537;-69
2021/12/03 03:34:11;;;;;;;;;16.67;10.00;;;;;;;;5037560;28;45749;-69
2021/12/03 03:36:37;;;;;;;;;9.67;9.67;;;;;;;;5041306;28;45447;-69
2021/12/03 03:39:04;;;;;;;;;8.00;8.00;;;;;;;;5040338;28;45419;-69
2021/12/03 03:41:29;;;;;;;;;14.00;11.33;;;;;;;;5041710;28;45441;-70
2021/12/03 03:43:54;;;;;;;;;15.67;11.67;;;;;;;;5032192;28;45528;-69
2021/12/03 03:46:20;;;;;;;;;11.67;11.67;;;;;;;;5042710;28;46267;-69
2021/12/03 03:48:45;;;;;;;;;12.67;10.33;;;;;;;;5031667;28;45708;-69
2021/12/03 03:51:11;;;;;;;;;12.67;10.67;;;;;;;;5043035;28;45373;-69
2021/12/03 03:53:38;;;;;;;;;24.67;14.00;;;;;;;;5036735;28;45711;-69
2021/12/03 03:56:04;;;;;;;;;17.67;14.00;;;;;;;;5042461;28;45386;-69
2021/12/03 03:58:29;;;;;;;;;14.00;12.33;;;;;;;;5034051;28;45343;-69
2021/12/03 04:00:54;;;;;;;;;16.33;12.00;;;;;;;;5042586;28;45330;-69
2021/12/03 04:03:20;;;;;;;;;14.33;13.67;;;;;;;;5036309;28;45483;-69
2021/12/03 04:05:45;;;;;;;;;16.67;12.33;;;;;;;;5042120;28;46410;-69
2021/12/03 04:08:11;;;;;;;;;14.00;12.00;;;;;;;;5035544;28;45324;-69
2021/12/03 04:10:36;;;;;;;;;12.33;10.33;;;;;;;;5042496;28;45239;-69
2021/12/03 04:13:01;;;;;;;;;12.00;12.00;;;;;;;;5037421;28;45251;-69
2021/12/03 04:15:26;;;;;;;;;9.00;9.00;;;;;;;;5042249;28;46223;-69
2021/12/03 04:17:52;;;;;;;;;11.67;11.67;;;;;;;;5037193;28;45351;-69
2021/12/03 04:20:18;;;;;;;;;11.67;10.33;;;;;;;;5042146;28;45390;-69
2021/12/03 04:22:43;;;;;;;;;12.00;12.00;;;;;;;;5036815;28;45396;-69
2021/12/03 04:25:10;;;;;;;;;9.00;8.00;;;;;;;;5037933;28;46451;-69
2021/12/03 04:27:36;;;;;;;;;11.33;8.67;;;;;;;;5037071;28;45325;-69
2021/12/03 04:30:01;;;;;;;;;12.00;10.33;;;;;;;;5031849;28;45337;-69
2021/12/03 04:32:27;;;;;;;;;12.00;10.33;;;;;;;;5035965;28;45469;-69
2021/12/03 04:34:53;;;;;;;;;11.33;9.67;;;;;;;;5030788;28;45436;-70
2021/12/03 04:37:18;;;;;;;;;9.33;9.33;;;;;;;;5037589;28;45441;-69
2021/12/03 04:39:43;;;;;;;;;9.00;7.33;;;;;;;;5038968;28;45459;-69
2021/12/03 04:42:08;;;;;;;;;13.00;9.33;;;;;;;;5038012;28;45405;-69
2021/12/03 04:44:35;;;;;;;;;11.33;9.33;;;;;;;;5028526;28;48050;-69
2021/12/03 04:47:00;;;;;;;;;14.67;12.67;;;;;;;;5036491;28;45238;-70
2021/12/03 04:49:26;;;;;;;;;9.00;9.00;;;;;;;;5038828;28;45391;-69
2021/12/03 04:51:51;;;;;;;;;15.00;8.33;;;;;;;;5043769;28;45362;-69
2021/12/03 04:54:16;;;;;;;;;11.67;9.00;;;;;;;;5034915;28;45370;-69
2021/12/03 04:56:41;;;;;;;;;10.00;9.00;;;;;;;;5042483;28;45741;-69
2021/12/03 04:59:06;;;;;;;;;11.33;10.00;;;;;;;;5037751;28;45474;-69
2021/12/03 05:01:32;;;;;;;;;9.67;9.00;;;;;;;;5045362;28;45518;-69
2021/12/03 05:03:57;;;;;;;;;11.67;8.00;;;;;;;;5035389;28;46662;-69
2021/12/03 05:06:52;;;;;;;;;10.33;10.33;;;;;;;;5043316;28;45411;-70
2021/12/03 05:09:16;;;;;;;;;10.33;9.00;;;;;;;;5034363;28;45676;-70
2021/12/03 05:11:42;;;;;;;;;15.00;10.67;;;;;;;;5030989;28;45615;-69
2021/12/03 05:14:07;;;;;;;;;11.33;9.67;;;;;;;;5041535;28;46694;-70
2021/12/03 05:16:32;;;;;;;;;8.00;6.67;;;;;;;;5041911;28;45512;-71
2021/12/03 05:18:57;;;;;;;;;11.33;9.67;;;;;;;;5038265;28;45627;-69
2021/12/03 05:21:22;;;;;;;;;9.00;9.00;;;;;;;;5043562;28;45468;-70
2021/12/03 05:23:48;;;;;;;;;16.33;8.67;;;;;;;;5035849;28;45457;-70
2021/12/03 05:26:13;;;;;;;;;6.00;6.00;;;;;;;;5040518;28;45657;-69
2021/12/03 05:28:38;;;;;;;;;14.33;8.00;;;;;;;;5040013;28;45381;-71
2021/12/03 05:31:03;;;;;;;;;17.33;8.67;;;;;;;;5042602;28;45588;-70
2021/12/03 05:33:29;;;;;;;;;9.67;7.33;;;;;;;;5041103;28;46557;-70
2021/12/03 05:35:54;;;;;;;;;7.67;7.67;;;;;;;;5043458;28;45428;-70
2021/12/03 05:38:19;;;;;;;;;9.33;5.67;;;;;;;;5036301;28;45867;-70
2021/12/03 05:40:44;;;;;;;;;9.00;9.00;;;;;;;;5040493;28;45314;-70
2021/12/03 05:43:10;;;;;;;;;5.33;5.33;;;;;;;;5035384;28;47613;-70
2021/12/03 05:45:36;;;;;;;;;7.00;7.00;;;;;;;;5040257;28;45447;-70
2021/12/03 05:48:01;;;;;;;;;9.33;8.67;;;;;;;;5036268;28;45516;-70
2021/12/03 05:50:28;;;;;;;;;5.00;5.00;;;;;;;;5042447;28;45633;-70
2021/12/03 05:52:53;;;;;;;;;7.33;5.33;;;;;;;;5037861;28;45667;-69
2021/12/03 05:55:19;;;;;;;;;11.33;6.00;;;;;;;;5038188;28;45271;-69
2021/12/03 05:57:45;;;;;;;;;6.67;5.00;;;;;;;;5037175;28;45268;-70
2021/12/03 06:00:13;;;;;;;;;9.33;9.00;;;;;;;;5043974;28;45486;-69
2021/12/03 06:02:38;;;;;;;;;5.33;3.33;;;;;;;;5037128;28;47135;-69
2021/12/03 06:05:03;;;;;;;;;5.67;1.00;;;;;;;;5041537;28;45640;-69
2021/12/03 06:07:29;;;;;;;;;9.67;9.00;;;;;;;;5036461;28;45231;-70
2021/12/03 06:09:54;;;;;;;;;7.67;7.00;;;;;;;;5042534;28;45436;-69
2021/12/03 06:12:19;;;;;;;;;8.33;7.67;;;;;;;;5039140;28;45408;-69
2021/12/03 06:14:44;;;;;;;;;8.67;6.67;;;;;;;;5040086;28;45363;-69
2021/12/03 06:17:12;;;;;;;;;6.00;6.00;;;;;;;;5039930;28;46118;-69
2021/12/03 06:19:39;;;;;;;;;10.67;6.67;;;;;;;;5043231;28;45485;-69
2021/12/03 06:22:04;;;;;;;;;6.00;6.00;;;;;;;;5041179;28;46128;-69
2021/12/03 06:24:29;;;;;;;;;5.33;5.33;;;;;;;;5035666;28;45272;-69
2021/12/03 06:26:54;;;;;;;;;8.00;5.67;;;;;;;;5039589;28;45715;-69
2021/12/03 06:29:19;;;;;;;;;7.00;5.00;;;;;;;;5041654;28;45507;-69
2021/12/03 06:31:45;;;;;;;;;6.67;6.67;;;;;;;;5041166;28;45666;-69
2021/12/03 06:34:10;;;;;;;;;5.00;5.00;;;;;;;;5040655;28;45573;-70
2021/12/03 06:36:35;;;;;;;;;5.33;5.33;;;;;;;;5040993;28;45360;-70
2021/12/03 06:39:00;;;;;;;;;9.00;6.00;;;;;;;;5032762;28;45473;-69
2021/12/03 06:41:25;;;;;;;;;9.67;6.33;;;;;;;;5041631;28;47873;-70
2021/12/03 06:43:51;;;;;;;;;5.00;3.33;;;;;;;;5033577;28;45365;-70
2021/12/03 06:46:17;;;;;;;;;9.67;5.67;;;;;;;;5042971;28;45272;-70
2021/12/03 06:48:42;;;;;;;;;5.00;4.33;;;;;;;;5036896;28;45478;-70
2021/12/03 06:51:07;;;;;;;;;7.00;3.00;;;;;;;;5031223;28;45550;-70
2021/12/03 06:53:43;;;;;;;;;5.67;5.00;;;;;;;;5033218;28;45461;-69
2021/12/03 06:56:09;;;;;;;;;5.33;5.33;;;;;;;;5033386;28;45414;-70
2021/12/03 06:58:35;;;;;;;;;5.00;5.00;;;;;;;;5034478;28;45407;-70
2021/12/03 07:01:00;;;;;;;;;3.33;3.00;;;;;;;;5040955;28;46266;-70
2021/12/03 07:03:26;;;;;;;;;5.00;2.00;;;;;;;;5036256;28;45346;-69
2021/12/03 07:05:51;;;;;;;;;5.00;5.00;;;;;;;;5042240;28;45541;-72
2021/12/03 07:08:17;;;;;;;;;3.00;3.00;;;;;;;;5033836;28;45490;-70
2021/12/03 07:10:42;;;;;;;;;10.00;7.00;;;;;;;;5041291;28;45839;-70
2021/12/03 07:13:07;;;;;;;;;6.00;6.00;;;;;;;;5032978;28;45579;-69
2021/12/03 07:15:33;;;;;;;;;2.00;2.00;;;;;;;;5042456;28;45209;-69
2021/12/03 07:17:59;;;;;;;;;3.67;3.67;;;;;;;;5037483;28;45419;-69
2021/12/03 07:20:25;;;;;;;;;7.67;2.67;;;;;;;;5039478;28;47532;-69
2021/12/03 07:22:51;;;;;;;;;5.67;5.67;;;;;;;;5036068;28;45389;-70
2021/12/03 07:25:17;;;;;;;;;3.00;2.00;;;;;;;;5038305;28;45156;-70
2021/12/03 07:27:42;;;;;;;;;5.33;3.00;;;;;;;;5038240;28;45448;-70
2021/12/03 07:30:08;;;;;;;;;2.33;2.33;;;;;;;;5038833;28;46236;-69
2021/12/03 07:32:34;;;;;;;;;11.33;8.33;;;;;;;;5038536;28;45200;-70
2021/12/03 07:34:59;;;;;;;;;5.00;4.33;;;;;;;;5040181;28;45306;-70
2021/12/03 07:37:25;;;;;;;;;3.33;3.33;;;;;;;;5038913;28;45569;-71
2021/12/03 07:39:50;;;;;;;;;6.00;4.33;;;;;;;;5032169;28;46474;-69
2021/12/03 07:42:15;;;;;;;;;5.33;5.33;;;;;;;;5038797;28;45442;-70
2021/12/03 07:44:41;;;;;;;;;3.33;3.33;;;;;;;;5040220;28;45425;-70
2021/12/03 07:47:06;;;;;;;;;4.33;4.33;;;;;;;;5040781;28;45538;-69
2021/12/03 07:49:31;;;;;;;;;6.00;5.00;;;;;;;;5034599;28;46416;-70
2021/12/03 07:51:58;;;;;;;;;8.00;7.00;;;;;;;;5036038;28;45183;-70
2021/12/03 07:54:23;;;;;;;;;10.00;5.00;;;;;;;;5036823;28;45449;-70
2021/12/03 07:56:48;;;;;;;;;6.33;5.33;;;;;;;;5039858;28;45313;-69
2021/12/03 07:59:14;;;;;;;;;12.00;7.00;;;;;;;;5036758;28;45965;-69
2021/12/03 08:01:43;;;;;;;;;5.33;5.00;;;;;;;;5040942;28;45319;-69
2021/12/03 08:04:09;;;;;;;;;5.00;5.00;;;;;;;;5035051;28;45490;-70
2021/12/03 08:06:38;;;;;;;;;5.00;5.00;;;;;;;;5042290;28;45425;-69
2021/12/03 08:09:03;;;;;;;;;13.00;7.00;;;;;;;;5035156;28;46064;-70
2021/12/03 08:11:28;;;;;;;;;5.33;5.33;;;;;;;;5041633;28;45376;-69
2021/12/03 08:13:53;;;;;;;;;6.33;5.00;;;;;;;;5035358;28;45429;-69
2021/12/03 08:16:19;;;;;;;;;6.00;6.00;;;;;;;;5042257;28;45161;-69
2021/12/03 08:18:45;;;;;;;;;6.67;3.00;;;;;;;;5033833;28;47996;-69
2021/12/03 08:21:10;;;;;;;;;7.00;3.67;;;;;;;;5039271;28;45346;-70
2021/12/03 08:23:35;;;;;;;;;9.33;4.33;;;;;;;;5036403;28;45479;-70
2021/12/03 08:26:01;;;;;;;;;7.00;3.67;;;;;;;;5045608;28;45306;-69
2021/12/03 08:28:26;;;;;;;;;6.00;5.67;;;;;;;;5036192;28;47210;-69
2021/12/03 08:30:51;;;;;;;;;4.00;2.00;;;;;;;;5040884;28;45218;-69
2021/12/03 08:33:17;;;;;;;;;7.00;3.00;;;;;;;;5042105;28;45487;-69
2021/12/03 08:35:42;;;;;;;;;3.00;2.00;;;;;;;;5044530;28;45409;-69
2021/12/03 08:38:07;;;;;;;;;5.33;4.33;;;;;;;;5036897;28;47341;-70
2021/12/03 08:40:33;;;;;;;;;10.00;5.00;;;;;;;;5039918;28;45562;-70
2021/12/03 08:42:58;;;;;;;;;6.33;5.00;;;;;;;;5037855;28;45433;-70
2021/12/03 08:45:24;;;;;;;;;7.67;5.33;;;;;;;;5039961;28;45301;-70
2021/12/03 08:47:53;;;;;;;;;5.00;5.00;;;;;;;;5037198;28;47895;-70
2021/12/03 08:50:28;;;;;;;;;9.67;6.00;;;;;;;;5044406;28;45425;-70
2021/12/03 08:55:18;;;;;;;;;2.33;2.33;;;;;;;;5041798;28;45334;-70
2021/12/03 08:57:43;;;;;;;;;0.00;0.00;;;;;;;;5038254;28;45719;-70
2021/12/03 09:00:16;;;;;;;;;3.00;3.00;;;;;;;;5044200;28;45357;-70
2021/12/03 09:02:42;;;;;;;;;5.33;5.33;;;;;;;;5038618;28;45426;-70
2021/12/03 09:05:08;;;;;;;;;7.00;5.00;;;;;;;;5045167;28;45420;-70
2021/12/03 09:07:33;;;;;;;;;6.00;6.00;;;;;;;;5038064;28;45942;-70
2021/12/03 09:09:59;;;;;;;;;6.00;6.00;;;;;;;;5043419;28;45361;-70
2021/12/03 09:12:24;;;;;;;;;5.00;3.00;;;;;;;;5037920;28;46236;-70
2021/12/03 09:14:52;;;;;;;;;15.67;10.00;;;;;;;;5042601;28;45494;-69
2021/12/03 09:19:59;;;;;;;;;6.00;6.00;;;;;;;;5044360;28;45204;-69
2021/12/03 09:24:56;;;;;;;;;2.67;2.67;;;;;;;;5037742;28;45449;-70
2021/12/03 09:27:21;;;;;;;;;8.33;6.00;;;;;;;;5040157;28;47483;-69
2021/12/03 09:29:48;;;;;;;;;5.33;5.00;;;;;;;;5037506;28;45417;-69
2021/12/03 09:32:21;;;;;;;;;5.33;1.33;;;;;;;;5043179;28;45272;-69
2021/12/03 09:34:46;;;;;;;;;6.00;6.00;;;;;;;;5043206;28;45514;-70
2021/12/03 09:37:11;;;;;;;;;8.67;6.00;;;;;;;;5039574;28;45430;-70
2021/12/03 09:39:40;;;;;;;;;7.67;6.00;;;;;;;;5042653;28;45413;-70
2021/12/03 09:42:05;;;;;;;;;6.33;6.33;;;;;;;;5040621;28;45311;-70
2021/12/03 09:44:31;;;;;;;;;5.33;5.33;;;;;;;;5037291;28;45568;-69
2021/12/03 09:46:57;;;;;;;;;6.00;3.00;;;;;;;;5042762;28;45417;-69
2021/12/03 09:57:02;;;;;;;;;5.00;5.00;;;;;;;;5041934;28;45319;-69
2021/12/03 10:02:14;;;;;;;;;7.67;5.33;;;;;;;;5041618;28;45422;-69
2021/12/03 10:15:20;;;;;;;;;3.00;2.33;;;;;;;;5030932;28;45335;-68
2021/12/03 10:18:11;;;;;;;;;7.67;4.33;;;;;;;;5040355;28;46081;-68
2021/12/03 10:42:18;;;;;;;;;10.00;6.67;;;;;;;;5041397;28;45419;-69
2021/12/03 11:01:09;;;;;;;;;6.67;6.67;;;;;;;;5036693;28;46447;-69
2021/12/03 12:00:13;;;;;;;;;10.00;10.00;;;;;;;;5039923;28;45299;-71
2021/12/03 12:06:56;;;;;;;;;8.67;8.67;;;;;;;;5044381;28;45357;-70
2021/12/03 12:14:15;;;;;;;;;8.00;8.00;;;;;;;;5040840;28;45314;-67
2021/12/03 12:18:23;;;;;;;;;16.00;10.33;;;;;;;;5043161;28;45415;-67
2021/12/03 13:08:31;;;;;;;;;5.67;3.33;;;;;;;;5037710;28;45550;-69
2021/12/03 13:27:09;;;;;;;;;2.00;2.00;;;;;;;;5044090;28;45404;-69
2021/12/03 14:13:13;;;;;;;;;6.00;5.33;;;;;;;;5041665;28;45171;-68
2021/12/03 14:35:29;;;;;;;;;5.00;5.00;;;;;;;;5032584;28;45339;-68
2021/12/03 14:37:22;;;;;;;;;3.33;3.33;;;;;;;;5041616;28;45470;-71
2021/12/03 14:40:10;;;;;;;;;3.67;3.67;;;;;;;;5030823;28;47140;-73
2021/12/03 14:42:51;;;;;;;;;2.33;2.00;;;;;;;;5038835;28;45589;-72
2021/12/03 14:55:56;;;;;;;;;3.33;2.00;;;;;;;;5034041;28;45314;-71
2021/12/03 14:59:07;;;;;;;;;3.33;3.33;;;;;;;;5036926;28;45454;-71
2021/12/03 15:01:25;;;;;;;;;1.00;1.00;;;;;;;;5033563;28;45283;-73
2021/12/03 15:04:23;;;;;;;;;3.00;3.00;;;;;;;;5032300;28;45325;-71
2021/12/03 15:07:11;;;;;;;;;5.00;2.33;;;;;;;;5034647;28;45425;-69
2021/12/03 15:09:44;;;;;;;;;7.00;3.00;;;;;;;;5032663;28;45640;-71
2021/12/03 15:30:43;;;;;;;;;5.67;5.67;;;;;;;;5027311;28;45325;-72
2021/12/03 15:33:45;;;;;;;;;5.67;5.00;;;;;;;;5033244;28;46685;-71
2021/12/03 15:55:51;;;;;;;;;7.67;7.67;;;;;;;;5039098;28;45273;-69
2021/12/03 16:03:45;;;;;;;;;4.33;3.67;;;;;;;;5037210;28;45376;-70
2021/12/03 16:06:25;;;;;;;;;9.33;6.33;;;;;;;;5038017;28;46493;-72
2021/12/03 16:08:51;;;;;;;;;5.00;5.00;;;;;;;;5034917;28;45284;-71
2021/12/03 16:21:46;;;;;;;;;7.00;5.00;;;;;;;;5039941;28;45494;-71
2021/12/03 16:53:40;;;;;;;;;10.00;8.00;;;;;;;;5042558;28;45439;-69
2021/12/03 16:56:11;;;;;;;;;8.67;6.33;;;;;;;;5045652;28;45411;-70
2021/12/03 16:58:38;;;;;;;;;3.33;2.33;;;;;;;;5038436;28;45477;-69
2021/12/03 17:01:08;;;;;;;;;10.00;8.33;;;;;;;;5045085;28;45460;-69
2021/12/03 17:03:49;;;;;;;;;9.00;9.00;;;;;;;;5038459;28;45442;-69
2021/12/03 17:09:16;;;;;;;;;7.33;6.67;;;;;;;;5037664;28;45864;-69
2021/12/03 17:11:57;;;;;;;;;9.67;9.33;;;;;;;;5044729;28;45424;-69
2021/12/03 17:14:45;;;;;;;;;6.33;6.33;;;;;;;;5036416;28;45498;-69
2021/12/03 17:49:43;;;;;;;;;13.00;10.00;;;;;;;;5037537;28;45342;-69
2021/12/03 17:52:33;;;;;;;;;8.67;7.33;;;;;;;;5041740;28;46616;-70
2021/12/03 18:00:26;;;;;;;;;7.67;7.67;;;;;;;;5043435;28;45462;-70
2021/12/03 18:02:55;;;;;;;;;9.67;9.67;;;;;;;;5037393;28;45371;-69
2021/12/03 18:08:19;;;;;;;;;9.33;8.67;;;;;;;;5037405;28;45502;-69
2021/12/03 18:10:55;;;;;;;;;7.67;7.67;;;;;;;;5039534;28;45425;-69
2021/12/03 18:56:54;;;;;;;;;13.33;12.67;;;;;;;;5042247;28;45303;-68
2021/12/03 18:59:21;;;;;;;;;13.67;11.00;;;;;;;;5037467;28;45390;-68
2021/12/03 19:01:47;;;;;;;;;13.33;13.33;;;;;;;;5043345;28;45378;-67
2021/12/03 19:09:13;;;;;;;;;16.33;13.33;;;;;;;;5035712;28;45333;-67
2021/12/03 19:14:06;;;;;;;;;13.33;12.00;;;;;;;;5039803;28;45356;-68
2021/12/03 19:16:32;;;;;;;;;15.33;12.33;;;;;;;;5040426;28;46480;-68
2021/12/03 19:18:58;;;;;;;;;16.33;16.33;;;;;;;;5040068;28;45474;-68
2021/12/03 19:21:26;;;;;;;;;16.00;16.00;;;;;;;;5039767;28;45370;-68
2021/12/03 19:23:55;;;;;;;;;17.00;16.00;;;;;;;;5038470;28;45449;-68
2021/12/03 19:26:20;;;;;;;;;19.00;17.00;;;;;;;;5041043;28;45684;-69
2021/12/03 19:28:46;;;;;;;;;19.33;15.67;;;;;;;;5040419;28;45401;-68
2021/12/03 19:31:11;;;;;;;;;24.00;19.67;;;;;;;;5042407;28;45433;-68
2021/12/03 19:33:37;;;;;;;;;19.00;17.00;;;;;;;;5035053;28;45430;-68
2021/12/03 19:36:05;;;;;;;;;16.00;16.00;;;;;;;;5040754;28;46504;-68
2021/12/03 19:38:32;;;;;;;;;20.00;17.00;;;;;;;;5034942;28;45377;-68
2021/12/03 19:41:00;;;;;;;;;21.00;19.00;;;;;;;;5040454;28;45396;-69
2021/12/03 19:43:33;;;;;;;;;19.67;19.33;;;;;;;;5034762;28;45461;-68
2021/12/03 19:46:05;;;;;;;;;21.00;19.33;;;;;;;;5040456;28;46219;-68
2021/12/03 19:48:38;;;;;;;;;16.33;15.00;;;;;;;;5034310;28;45386;-68
2021/12/03 19:51:11;;;;;;;;;21.00;17.00;;;;;;;;5040684;28;45465;-68
2021/12/03 19:53:43;;;;;;;;;14.67;14.67;;;;;;;;5033616;28;45622;-68
2021/12/03 19:56:08;;;;;;;;;25.00;25.00;;;;;;;;5039128;28;46425;-68
2021/12/03 19:58:33;;;;;;;;;24.00;21.33;;;;;;;;5034301;28;45397;-68
2021/12/03 20:00:58;;;;;;;;;22.00;20.67;;;;;;;;5041522;28;45618;-69
2021/12/03 20:03:23;;;;;;;;;20.33;19.00;;;;;;;;5039185;28;45463;-69
2021/12/03 20:05:49;;;;;;;;;17.67;17.67;;;;;;;;5041174;28;45507;-69
2021/12/03 20:08:14;;;;;;;;;23.67;21.67;;;;;;;;5038535;28;45616;-68
2021/12/03 20:10:42;;;;;;;;;24.33;21.67;;;;;;;;5040638;28;45492;-69
2021/12/03 20:13:09;;;;;;;;;26.33;22.00;;;;;;;;5035725;28;45449;-68
2021/12/03 20:15:48;;;;;;;;;21.67;21.00;;;;;;;;5040846;28;46043;-68
2021/12/03 20:20:58;;;;;;;;;24.00;21.00;;;;;;;;5043790;28;45539;-69
2021/12/03 20:24:21;;;;;;;;;18.00;16.00;;;;;;;;5041921;28;45420;-69
2021/12/03 20:31:32;;;;;;;;;15.33;15.33;;;;;;;;5045129;28;45302;-69
2021/12/03 20:39:20;;;;;;;;;17.33;14.33;;;;;;;;5039247;28;45407;-67
2021/12/03 20:41:55;;;;;;;;;20.33;15.67;;;;;;;;5043620;28;45246;-68
2021/12/03 20:52:44;;;;;;;;;13.00;13.00;;;;;;;;5049790;28;45456;-67
2021/12/03 21:10:57;;;;;;;;;11.67;11.67;;;;;;;;5042192;28;45420;-68
2021/12/03 21:13:41;;;;;;;;;13.67;11.00;;;;;;;;5040048;28;46449;-67
2021/12/03 21:19:13;;;;;;;;;12.67;12.67;;;;;;;;5038423;28;45689;-68
2021/12/03 21:24:06;;;;;;;;;16.33;12.67;;;;;;;;5035961;28;45382;-69
2021/12/03 21:26:32;;;;;;;;;12.00;10.33;;;;;;;;5040099;28;45506;-68
2021/12/03 21:42:02;;;;;;;;;10.33;10.00;;;;;;;;5041546;28;45321;-68
2021/12/03 21:44:27;;;;;;;;;14.00;9.33;;;;;;;;5040786;28;45572;-68
2021/12/03 21:46:52;;;;;;;;;12.00;12.00;;;;;;;;5041557;28;46884;-68
2021/12/03 21:49:17;;;;;;;;;12.67;10.33;;;;;;;;5037394;28;47416;-68
2021/12/03 21:51:43;;;;;;;;;9.67;7.33;;;;;;;;5042447;28;45449;-68
2021/12/03 21:54:10;;;;;;;;;8.33;8.33;;;;;;;;5038518;28;45483;-68
2021/12/03 21:56:35;;;;;;;;;11.67;8.00;;;;;;;;5042780;28;45536;-67
2021/12/03 21:59:01;;;;;;;;;11.33;10.00;;;;;;;;5036218;28;47814;-69
2021/12/03 22:01:26;;;;;;;;;8.67;8.00;;;;;;;;5041049;28;45358;-68
2021/12/03 22:03:52;;;;;;;;;9.00;7.67;;;;;;;;5040465;28;45426;-68
2021/12/03 22:06:20;;;;;;;;;7.67;7.00;;;;;;;;5043908;28;45652;-68
2021/12/03 22:08:45;;;;;;;;;8.33;8.33;;;;;;;;5039505;28;46472;-69
2021/12/03 22:11:10;;;;;;;;;8.33;8.33;;;;;;;;5043320;28;45334;-67
2021/12/03 22:13:35;;;;;;;;;10.00;9.33;;;;;;;;5037218;28;45432;-68
2021/12/03 22:16:01;;;;;;;;;8.00;8.00;;;;;;;;5043684;28;45426;-68
2021/12/03 22:18:27;;;;;;;;;11.00;11.00;;;;;;;;5036931;28;48883;-68
2021/12/03 22:20:54;;;;;;;;;9.00;9.00;;;;;;;;5036933;28;45330;-68
2021/12/03 22:23:19;;;;;;;;;9.00;7.33;;;;;;;;5040675;28;45442;-68
2021/12/03 22:25:44;;;;;;;;;10.00;10.00;;;;;;;;5042972;28;45298;-68
2021/12/03 22:28:10;;;;;;;;;11.67;10.00;;;;;;;;5038625;28;46113;-68
2021/12/03 22:30:41;;;;;;;;;12.67;9.33;;;;;;;;5036970;28;45286;-68
2021/12/03 22:33:07;;;;;;;;;15.00;15.00;;;;;;;;5040543;28;45346;-67
2021/12/03 22:35:32;;;;;;;;;10.67;10.67;;;;;;;;5038358;28;45429;-68
2021/12/03 22:37:57;;;;;;;;;21.33;17.33;;;;;;;;5037367;28;46202;-68
2021/12/03 22:40:22;;;;;;;;;18.33;14.67;;;;;;;;5043633;28;45236;-69
2021/12/03 22:42:48;;;;;;;;;13.00;13.00;;;;;;;;5038229;28;45530;-69
2021/12/03 22:45:17;;;;;;;;;14.00;11.33;;;;;;;;5042903;28;45376;-69
2021/12/03 22:47:53;;;;;;;;;14.00;11.33;;;;;;;;5039229;28;46975;-69
2021/12/03 22:50:29;;;;;;;;;15.67;14.00;;;;;;;;5039570;28;45351;-67
2021/12/03 22:52:55;;;;;;;;;17.00;14.00;;;;;;;;5035848;28;45700;-67